sensor_id;sensor_type;location;lat;lon;timestamp;temperature;humidity
64743;HTU21D;51177;45.018;38.982;2022-11-24T00:00:03;9.38;70.74
64743;HTU21D;51177;45.018;38.982;2022-11-24T00:02:31;9.38;70.71
64743;HTU21D;51177;45.018;38.982;2022-11-24T00:04:57;9.37;69.90
64743;HTU21D;51177;45.018;38.982;2022-11-24T00:07:23;9.35;69.87
64743;HTU21D;51177;45.018;38.982;2022-11-24T00:09:49;9.36;69.58
64743;HTU21D;51177;45.018;38.982;2022-11-24T00:12:16;9.37;71.86
64743;HTU21D;51177;45.018;38.982;2022-11-24T00:14:41;9.36;70.11
64743;HTU21D;51177;45.018;38.982;2022-11-24T00:17:07;9.37;72.24
64743;HTU21D;51177;45.018;38.982;2022-11-24T00:19:34;9.37;70.34
64743;HTU21D;51177;45.018;38.982;2022-11-24T00:22:00;9.35;70.16
64743;HTU21D;51177;45.018;38.982;2022-11-24T00:24:30;9.35;70.23
64743;HTU21D;51177;45.018;38.982;2022-11-24T00:26:57;9.35;69.74
64743;HTU21D;51177;45.018;38.982;2022-11-24T00:29:25;9.36;69.75
64743;HTU21D;51177;45.018;38.982;2022-11-24T00:31:53;9.36;69.56
64743;HTU21D;51177;45.018;38.982;2022-11-24T00:34:21;9.35;69.46
64743;HTU21D;51177;45.018;38.982;2022-11-24T00:36:46;9.35;70.22
64743;HTU21D;51177;45.018;38.982;2022-11-24T00:39:13;9.33;70.21
64743;HTU21D;51177;45.018;38.982;2022-11-24T00:41:40;9.33;69.92
64743;HTU21D;51177;45.018;38.982;2022-11-24T00:44:06;9.32;70.30
64743;HTU21D;51177;45.018;38.982;2022-11-24T00:46:31;9.31;70.42
64743;HTU21D;51177;45.018;38.982;2022-11-24T00:49:03;9.30;71.16
64743;HTU21D;51177;45.018;38.982;2022-11-24T00:51:29;9.31;71.41
64743;HTU21D;51177;45.018;38.982;2022-11-24T00:53:55;9.30;72.25
64743;HTU21D;51177;45.018;38.982;2022-11-24T00:56:22;9.29;70.52
64743;HTU21D;51177;45.018;38.982;2022-11-24T00:58:48;9.29;70.35
64743;HTU21D;51177;45.018;38.982;2022-11-24T01:01:22;9.29;70.86
64743;HTU21D;51177;45.018;38.982;2022-11-24T01:03:49;9.29;70.57
64743;HTU21D;51177;45.018;38.982;2022-11-24T01:06:19;9.29;71.19
64743;HTU21D;51177;45.018;38.982;2022-11-24T01:08:48;9.25;70.64
64743;HTU21D;51177;45.018;38.982;2022-11-24T01:13:46;9.23;70.95
64743;HTU21D;51177;45.018;38.982;2022-11-24T01:16:21;9.22;70.53
64743;HTU21D;51177;45.018;38.982;2022-11-24T01:18:48;9.21;72.22
64743;HTU21D;51177;45.018;38.982;2022-11-24T01:21:14;9.19;71.80
64743;HTU21D;51177;45.018;38.982;2022-11-24T01:23:40;9.17;72.01
64743;HTU21D;51177;45.018;38.982;2022-11-24T01:26:07;9.17;72.96
64743;HTU21D;51177;45.018;38.982;2022-11-24T01:28:33;9.14;71.51
64743;HTU21D;51177;45.018;38.982;2022-11-24T01:31:00;9.16;71.53
64743;HTU21D;51177;45.018;38.982;2022-11-24T01:33:27;9.14;71.00
64743;HTU21D;51177;45.018;38.982;2022-11-24T01:35:55;9.14;72.12
64743;HTU21D;51177;45.018;38.982;2022-11-24T01:38:22;9.15;71.84
64743;HTU21D;51177;45.018;38.982;2022-11-24T01:40:48;9.14;72.64
64743;HTU21D;51177;45.018;38.982;2022-11-24T01:43:17;9.12;71.95
64743;HTU21D;51177;45.018;38.982;2022-11-24T01:45:44;9.14;71.93
64743;HTU21D;51177;45.018;38.982;2022-11-24T01:48:20;9.14;72.53
64743;HTU21D;51177;45.018;38.982;2022-11-24T01:50:51;9.12;72.04
64743;HTU21D;51177;45.018;38.982;2022-11-24T01:53:20;9.11;72.33
64743;HTU21D;51177;45.018;38.982;2022-11-24T01:55:47;9.11;72.43
64743;HTU21D;51177;45.018;38.982;2022-11-24T01:58:16;9.14;73.38
64743;HTU21D;51177;45.018;38.982;2022-11-24T02:00:43;9.11;71.77
64743;HTU21D;51177;45.018;38.982;2022-11-24T02:03:10;9.12;71.70
64743;HTU21D;51177;45.018;38.982;2022-11-24T02:05:42;9.14;71.50
64743;HTU21D;51177;45.018;38.982;2022-11-24T02:08:12;9.11;71.86
64743;HTU21D;51177;45.018;38.982;2022-11-24T02:10:39;9.11;71.95
64743;HTU21D;51177;45.018;38.982;2022-11-24T02:13:05;9.09;71.36
64743;HTU21D;51177;45.018;38.982;2022-11-24T02:15:41;9.08;72.48
64743;HTU21D;51177;45.018;38.982;2022-11-24T02:18:07;9.06;72.92
64743;HTU21D;51177;45.018;38.982;2022-11-24T02:20:33;9.03;73.25
64743;HTU21D;51177;45.018;38.982;2022-11-24T02:28:02;8.95;72.81
64743;HTU21D;51177;45.018;38.982;2022-11-24T02:30:31;8.92;73.11
64743;HTU21D;51177;45.018;38.982;2022-11-24T02:32:57;8.90;73.51
64743;HTU21D;51177;45.018;38.982;2022-11-24T02:35:26;8.89;74.54
64743;HTU21D;51177;45.018;38.982;2022-11-24T02:37:52;8.87;72.71
64743;HTU21D;51177;45.018;38.982;2022-11-24T02:40:19;8.86;73.00
64743;HTU21D;51177;45.018;38.982;2022-11-24T02:42:49;8.85;73.28
64743;HTU21D;51177;45.018;38.982;2022-11-24T02:45:16;8.83;74.18
64743;HTU21D;51177;45.018;38.982;2022-11-24T02:47:43;8.80;74.51
64743;HTU21D;51177;45.018;38.982;2022-11-24T02:50:10;8.77;73.15
64743;HTU21D;51177;45.018;38.982;2022-11-24T02:52:37;8.77;75.31
64743;HTU21D;51177;45.018;38.982;2022-11-24T02:55:03;8.73;73.72
64743;HTU21D;51177;45.018;38.982;2022-11-24T02:57:30;8.71;73.40
64743;HTU21D;51177;45.018;38.982;2022-11-24T02:59:55;8.70;73.87
64743;HTU21D;51177;45.018;38.982;2022-11-24T03:02:26;8.68;75.63
64743;HTU21D;51177;45.018;38.982;2022-11-24T03:04:52;8.64;74.33
64743;HTU21D;51177;45.018;38.982;2022-11-24T03:07:17;8.64;73.96
64743;HTU21D;51177;45.018;38.982;2022-11-24T03:09:44;8.64;75.10
64743;HTU21D;51177;45.018;38.982;2022-11-24T03:12:10;8.62;75.06
64743;HTU21D;51177;45.018;38.982;2022-11-24T03:14:38;8.61;74.51
64743;HTU21D;51177;45.018;38.982;2022-11-24T03:17:04;8.61;73.64
64743;HTU21D;51177;45.018;38.982;2022-11-24T03:19:31;8.59;73.33
64743;HTU21D;51177;45.018;38.982;2022-11-24T03:21:57;8.58;73.60
64743;HTU21D;51177;45.018;38.982;2022-11-24T03:24:23;8.59;73.91
64743;HTU21D;51177;45.018;38.982;2022-11-24T03:26:50;8.58;74.75
64743;HTU21D;51177;45.018;38.982;2022-11-24T03:29:16;8.57;74.60
64743;HTU21D;51177;45.018;38.982;2022-11-24T03:31:42;8.56;73.71
64743;HTU21D;51177;45.018;38.982;2022-11-24T03:34:08;8.56;73.70
64743;HTU21D;51177;45.018;38.982;2022-11-24T03:36:34;8.55;74.08
64743;HTU21D;51177;45.018;38.982;2022-11-24T03:39:01;8.53;73.44
64743;HTU21D;51177;45.018;38.982;2022-11-24T03:41:27;8.57;76.28
64743;HTU21D;51177;45.018;38.982;2022-11-24T03:43:54;8.58;76.16
64743;HTU21D;51177;45.018;38.982;2022-11-24T03:46:20;8.57;74.19
64743;HTU21D;51177;45.018;38.982;2022-11-24T03:48:46;8.56;73.70
64743;HTU21D;51177;45.018;38.982;2022-11-24T03:51:11;8.57;76.04
64743;HTU21D;51177;45.018;38.982;2022-11-24T03:53:37;8.55;74.20
64743;HTU21D;51177;45.018;38.982;2022-11-24T03:56:04;8.55;74.28
64743;HTU21D;51177;45.018;38.982;2022-11-24T03:58:30;8.52;73.56
64743;HTU21D;51177;45.018;38.982;2022-11-24T04:00:56;8.53;73.73
64743;HTU21D;51177;45.018;38.982;2022-11-24T04:03:22;8.52;73.31
64743;HTU21D;51177;45.018;38.982;2022-11-24T04:05:48;8.55;73.46
64743;HTU21D;51177;45.018;38.982;2022-11-24T04:08:16;8.51;74.06
64743;HTU21D;51177;45.018;38.982;2022-11-24T04:10:42;8.51;73.26
64743;HTU21D;51177;45.018;38.982;2022-11-24T04:13:12;8.50;73.86
64743;HTU21D;51177;45.018;38.982;2022-11-24T04:15:39;8.48;73.40
64743;HTU21D;51177;45.018;38.982;2022-11-24T04:18:05;8.46;73.00
64743;HTU21D;51177;45.018;38.982;2022-11-24T04:20:32;8.45;72.88
64743;HTU21D;51177;45.018;38.982;2022-11-24T04:22:58;8.45;73.13
64743;HTU21D;51177;45.018;38.982;2022-11-24T04:25:24;8.43;72.88
64743;HTU21D;51177;45.018;38.982;2022-11-24T04:27:56;8.44;72.95
64743;HTU21D;51177;45.018;38.982;2022-11-24T04:30:22;8.46;73.12
64743;HTU21D;51177;45.018;38.982;2022-11-24T04:32:48;8.44;73.04
64743;HTU21D;51177;45.018;38.982;2022-11-24T04:35:15;8.43;72.87
64743;HTU21D;51177;45.018;38.982;2022-11-24T04:37:41;8.44;73.12
64743;HTU21D;51177;45.018;38.982;2022-11-24T04:40:07;8.42;72.90
64743;HTU21D;51177;45.018;38.982;2022-11-24T04:42:34;8.42;74.09
64743;HTU21D;51177;45.018;38.982;2022-11-24T04:44:59;8.42;73.17
64743;HTU21D;51177;45.018;38.982;2022-11-24T04:47:26;8.43;72.95
64743;HTU21D;51177;45.018;38.982;2022-11-24T04:49:52;8.44;72.72
64743;HTU21D;51177;45.018;38.982;2022-11-24T04:52:19;8.45;72.58
64743;HTU21D;51177;45.018;38.982;2022-11-24T04:54:45;8.47;72.50
64743;HTU21D;51177;45.018;38.982;2022-11-24T04:57:15;8.48;72.43
64743;HTU21D;51177;45.018;38.982;2022-11-24T04:59:42;8.50;72.45
64743;HTU21D;51177;45.018;38.982;2022-11-24T05:02:08;8.52;72.50
64743;HTU21D;51177;45.018;38.982;2022-11-24T05:04:38;8.56;72.32
64743;HTU21D;51177;45.018;38.982;2022-11-24T05:07:04;8.59;72.32
64743;HTU21D;51177;45.018;38.982;2022-11-24T05:09:29;8.63;72.83
64743;HTU21D;51177;45.018;38.982;2022-11-24T05:11:56;8.67;72.61
64743;HTU21D;51177;45.018;38.982;2022-11-24T05:14:21;8.71;72.83
64743;HTU21D;51177;45.018;38.982;2022-11-24T05:16:47;8.75;72.36
64743;HTU21D;51177;45.018;38.982;2022-11-24T05:19:13;8.77;72.87
64743;HTU21D;51177;45.018;38.982;2022-11-24T05:21:39;8.83;72.32
64743;HTU21D;51177;45.018;38.982;2022-11-24T05:24:05;8.89;72.03
64743;HTU21D;51177;45.018;38.982;2022-11-24T05:26:32;8.94;72.55
64743;HTU21D;51177;45.018;38.982;2022-11-24T05:28:59;9.00;72.09
64743;HTU21D;51177;45.018;38.982;2022-11-24T05:31:25;9.06;72.32
64743;HTU21D;51177;45.018;38.982;2022-11-24T05:33:51;9.12;72.06
64743;HTU21D;51177;45.018;38.982;2022-11-24T05:36:17;9.18;71.97
64743;HTU21D;51177;45.018;38.982;2022-11-24T05:39:01;9.26;72.04
64743;HTU21D;51177;45.018;38.982;2022-11-24T05:41:27;9.34;72.16
64743;HTU21D;51177;45.018;38.982;2022-11-24T05:43:53;9.40;72.02
64743;HTU21D;51177;45.018;38.982;2022-11-24T05:46:19;9.48;72.79
64743;HTU21D;51177;45.018;38.982;2022-11-24T05:48:45;9.55;71.96
64743;HTU21D;51177;45.018;38.982;2022-11-24T05:51:11;9.63;72.22
64743;HTU21D;51177;45.018;38.982;2022-11-24T05:53:37;9.69;71.71
64743;HTU21D;51177;45.018;38.982;2022-11-24T05:56:03;9.78;71.69
64743;HTU21D;51177;45.018;38.982;2022-11-24T05:58:30;9.85;71.48
64743;HTU21D;51177;45.018;38.982;2022-11-24T06:00:56;9.96;71.74
64743;HTU21D;51177;45.018;38.982;2022-11-24T06:03:22;10.07;71.38
64743;HTU21D;51177;45.018;38.982;2022-11-24T06:05:48;10.16;71.20
64743;HTU21D;51177;45.018;38.982;2022-11-24T06:08:14;10.26;71.16
64743;HTU21D;51177;45.018;38.982;2022-11-24T06:10:40;10.35;70.90
64743;HTU21D;51177;45.018;38.982;2022-11-24T06:13:06;10.43;70.74
64743;HTU21D;51177;45.018;38.982;2022-11-24T06:15:33;10.54;70.45
64743;HTU21D;51177;45.018;38.982;2022-11-24T06:17:59;10.63;69.81
64743;HTU21D;51177;45.018;38.982;2022-11-24T06:20:25;10.70;69.98
64743;HTU21D;51177;45.018;38.982;2022-11-24T06:22:51;10.78;69.94
64743;HTU21D;51177;45.018;38.982;2022-11-24T06:25:17;10.88;69.79
64743;HTU21D;51177;45.018;38.982;2022-11-24T06:27:43;10.93;69.15
64743;HTU21D;51177;45.018;38.982;2022-11-24T06:30:13;10.97;69.08
64743;HTU21D;51177;45.018;38.982;2022-11-24T06:32:39;11.08;69.03
64743;HTU21D;51177;45.018;38.982;2022-11-24T06:35:10;11.13;68.84
64743;HTU21D;51177;45.018;38.982;2022-11-24T06:37:36;11.20;68.61
64743;HTU21D;51177;45.018;38.982;2022-11-24T06:40:04;11.33;68.75
64743;HTU21D;51177;45.018;38.982;2022-11-24T06:42:30;11.43;68.62
64743;HTU21D;51177;45.018;38.982;2022-11-24T06:44:56;11.52;68.40
64743;HTU21D;51177;45.018;38.982;2022-11-24T06:47:22;11.61;68.22
64743;HTU21D;51177;45.018;38.982;2022-11-24T06:49:48;11.70;68.11
64743;HTU21D;51177;45.018;38.982;2022-11-24T06:52:13;11.78;67.80
64743;HTU21D;51177;45.018;38.982;2022-11-24T06:54:39;11.92;67.83
64743;HTU21D;51177;45.018;38.982;2022-11-24T06:57:05;12.11;67.39
64743;HTU21D;51177;45.018;38.982;2022-11-24T06:59:31;12.19;67.27
64743;HTU21D;51177;45.018;38.982;2022-11-24T07:01:57;12.23;67.21
64743;HTU21D;51177;45.018;38.982;2022-11-24T07:04:23;12.27;65.85
64743;HTU21D;51177;45.018;38.982;2022-11-24T07:06:49;12.29;66.40
64743;HTU21D;51177;45.018;38.982;2022-11-24T07:09:15;12.31;66.20
64743;HTU21D;51177;45.018;38.982;2022-11-24T07:11:40;12.41;65.91
64743;HTU21D;51177;45.018;38.982;2022-11-24T07:14:09;12.48;66.27
64743;HTU21D;51177;45.018;38.982;2022-11-24T07:16:35;12.60;66.07
64743;HTU21D;51177;45.018;38.982;2022-11-24T07:19:01;12.74;65.95
64743;HTU21D;51177;45.018;38.982;2022-11-24T07:21:27;12.82;64.78
64743;HTU21D;51177;45.018;38.982;2022-11-24T07:23:55;12.94;65.63
64743;HTU21D;51177;45.018;38.982;2022-11-24T07:29:13;13.11;64.72
64743;HTU21D;51177;45.018;38.982;2022-11-24T07:31:39;13.19;64.30
64743;HTU21D;51177;45.018;38.982;2022-11-24T07:34:05;13.31;61.53
64743;HTU21D;51177;45.018;38.982;2022-11-24T07:36:31;13.36;63.22
64743;HTU21D;51177;45.018;38.982;2022-11-24T07:38:57;13.64;61.63
64743;HTU21D;51177;45.018;38.982;2022-11-24T07:41:23;14.51;61.96
64743;HTU21D;51177;45.018;38.982;2022-11-24T07:43:49;15.18;61.05
64743;HTU21D;51177;45.018;38.982;2022-11-24T07:46:16;15.61;60.17
64743;HTU21D;51177;45.018;38.982;2022-11-24T07:48:43;15.81;58.61
64743;HTU21D;51177;45.018;38.982;2022-11-24T07:51:09;15.86;56.28
64743;HTU21D;51177;45.018;38.982;2022-11-24T07:53:36;15.85;57.35
64743;HTU21D;51177;45.018;38.982;2022-11-24T07:56:04;15.84;58.01
64743;HTU21D;51177;45.018;38.982;2022-11-24T07:58:31;16.00;57.96
64743;HTU21D;51177;45.018;38.982;2022-11-24T08:00:57;16.48;58.10
64743;HTU21D;51177;45.018;38.982;2022-11-24T08:03:23;16.77;57.34
64743;HTU21D;51177;45.018;38.982;2022-11-24T08:05:56;16.60;58.44
64743;HTU21D;51177;45.018;38.982;2022-11-24T08:08:22;16.67;55.75
64743;HTU21D;51177;45.018;38.982;2022-11-24T08:10:49;16.79;56.69
64743;HTU21D;51177;45.018;38.982;2022-11-24T08:13:16;16.95;57.93
64743;HTU21D;51177;45.018;38.982;2022-11-24T08:15:44;17.11;56.60
64743;HTU21D;51177;45.018;38.982;2022-11-24T08:18:10;17.41;52.73
64743;HTU21D;51177;45.018;38.982;2022-11-24T08:20:36;17.39;55.65
64743;HTU21D;51177;45.018;38.982;2022-11-24T08:23:03;17.40;55.94
64743;HTU21D;51177;45.018;38.982;2022-11-24T08:25:29;17.52;56.19
64743;HTU21D;51177;45.018;38.982;2022-11-24T08:27:59;17.96;55.90
64743;HTU21D;51177;45.018;38.982;2022-11-24T08:30:29;18.42;54.61
64743;HTU21D;51177;45.018;38.982;2022-11-24T08:32:57;18.89;54.59
64743;HTU21D;51177;45.018;38.982;2022-11-24T08:35:23;19.10;53.87
64743;HTU21D;51177;45.018;38.982;2022-11-24T08:37:51;19.40;52.22
64743;HTU21D;51177;45.018;38.982;2022-11-24T08:40:17;19.50;52.01
64743;HTU21D;51177;45.018;38.982;2022-11-24T08:42:46;19.69;52.25
64743;HTU21D;51177;45.018;38.982;2022-11-24T08:45:12;19.75;51.01
64743;HTU21D;51177;45.018;38.982;2022-11-24T08:47:40;19.61;51.49
64743;HTU21D;51177;45.018;38.982;2022-11-24T08:50:10;19.50;51.35
64743;HTU21D;51177;45.018;38.982;2022-11-24T08:52:35;19.30;50.82
64743;HTU21D;51177;45.018;38.982;2022-11-24T08:55:01;19.51;48.75
64743;HTU21D;51177;45.018;38.982;2022-11-24T08:57:27;19.58;50.73
64743;HTU21D;51177;45.018;38.982;2022-11-24T08:59:53;19.86;50.88
64743;HTU21D;51177;45.018;38.982;2022-11-24T09:02:19;20.18;50.50
64743;HTU21D;51177;45.018;38.982;2022-11-24T09:04:45;20.27;50.15
64743;HTU21D;51177;45.018;38.982;2022-11-24T09:07:11;19.99;50.17
64743;HTU21D;51177;45.018;38.982;2022-11-24T09:09:37;19.81;50.17
64743;HTU21D;51177;45.018;38.982;2022-11-24T09:12:02;19.58;48.01
64743;HTU21D;51177;45.018;38.982;2022-11-24T09:14:29;19.24;49.52
64743;HTU21D;51177;45.018;38.982;2022-11-24T09:16:54;18.89;50.56
64743;HTU21D;51177;45.018;38.982;2022-11-24T09:19:20;18.52;50.85
64743;HTU21D;51177;45.018;38.982;2022-11-24T09:21:46;18.21;49.92
64743;HTU21D;51177;45.018;38.982;2022-11-24T09:24:14;17.82;50.43
64743;HTU21D;51177;45.018;38.982;2022-11-24T09:29:32;17.36;49.54
64743;HTU21D;51177;45.018;38.982;2022-11-24T09:31:58;17.23;51.27
64743;HTU21D;51177;45.018;38.982;2022-11-24T09:34:24;17.14;52.12
64743;HTU21D;51177;45.018;38.982;2022-11-24T09:36:50;17.04;50.21
64743;HTU21D;51177;45.018;38.982;2022-11-24T09:39:16;16.92;50.59
64743;HTU21D;51177;45.018;38.982;2022-11-24T09:44:48;16.65;52.72
64743;HTU21D;51177;45.018;38.982;2022-11-24T09:47:22;16.70;52.10
64743;HTU21D;51177;45.018;38.982;2022-11-24T09:50:03;16.76;52.20
64743;HTU21D;51177;45.018;38.982;2022-11-24T09:54:57;16.81;52.27
64743;HTU21D;51177;45.018;38.982;2022-11-24T09:57:25;16.71;51.67
64743;HTU21D;51177;45.018;38.982;2022-11-24T09:59:54;16.60;52.01
64743;HTU21D;51177;45.018;38.982;2022-11-24T10:02:24;16.56;52.53
64743;HTU21D;51177;45.018;38.982;2022-11-24T10:04:50;16.51;51.90
64743;HTU21D;51177;45.018;38.982;2022-11-24T10:07:29;16.51;51.17
64743;HTU21D;51177;45.018;38.982;2022-11-24T10:10:10;16.44;51.66
64743;HTU21D;51177;45.018;38.982;2022-11-24T10:12:48;16.41;52.67
64743;HTU21D;51177;45.018;38.982;2022-11-24T10:15:28;16.42;53.04
64743;HTU21D;51177;45.018;38.982;2022-11-24T10:28:14;17.17;52.69
64743;HTU21D;51177;45.018;38.982;2022-11-24T10:30:46;17.34;51.71
64743;HTU21D;51177;45.018;38.982;2022-11-24T10:33:18;17.46;52.03
64743;HTU21D;51177;45.018;38.982;2022-11-24T10:43:27;17.29;52.40
64743;HTU21D;51177;45.018;38.982;2022-11-24T10:46:26;17.29;51.82
64743;HTU21D;51177;45.018;38.982;2022-11-24T10:48:49;17.25;52.30
64743;HTU21D;51177;45.018;38.982;2022-11-24T10:51:31;17.36;52.14
64743;HTU21D;51177;45.018;38.982;2022-11-24T10:54:08;17.36;51.88
64743;HTU21D;51177;45.018;38.982;2022-11-24T10:56:38;17.35;52.37
64743;HTU21D;51177;45.018;38.982;2022-11-24T11:04:51;17.24;52.71
64743;HTU21D;51177;45.018;38.982;2022-11-24T11:07:18;17.24;52.94
64743;HTU21D;51177;45.018;38.982;2022-11-24T11:09:45;17.23;51.23
64743;HTU21D;51177;45.018;38.982;2022-11-24T11:12:22;17.26;52.02
64743;HTU21D;51177;45.018;38.982;2022-11-24T11:14:49;17.31;52.21
64743;HTU21D;51177;45.018;38.982;2022-11-24T11:19:53;17.43;47.99
64743;HTU21D;51177;45.018;38.982;2022-11-24T11:22:26;17.40;51.77
64743;HTU21D;51177;45.018;38.982;2022-11-24T11:30:29;17.50;50.99
64743;HTU21D;51177;45.018;38.982;2022-11-24T11:32:58;17.45;51.39
64743;HTU21D;51177;45.018;38.982;2022-11-24T11:35:28;17.51;51.65
64743;HTU21D;51177;45.018;38.982;2022-11-24T11:38:00;17.51;49.79
64743;HTU21D;51177;45.018;38.982;2022-11-24T11:40:28;17.53;50.73
64743;HTU21D;51177;45.018;38.982;2022-11-24T11:45:36;17.56;51.13
64743;HTU21D;51177;45.018;38.982;2022-11-24T11:50:40;17.50;50.65
64743;HTU21D;51177;45.018;38.982;2022-11-24T12:00:37;17.54;51.00
64743;HTU21D;51177;45.018;38.982;2022-11-24T12:08:39;17.53;51.24
64743;HTU21D;51177;45.018;38.982;2022-11-24T12:16:44;17.65;51.68
64743;HTU21D;51177;45.018;38.982;2022-11-24T12:22:01;17.64;51.69
64743;HTU21D;51177;45.018;38.982;2022-11-24T12:29:44;17.81;51.79
64743;HTU21D;51177;45.018;38.982;2022-11-24T12:48:22;17.90;51.57
64743;HTU21D;51177;45.018;38.982;2022-11-24T12:50:50;18.02;51.39
64743;HTU21D;51177;45.018;38.982;2022-11-24T12:53:22;17.99;51.30
64743;HTU21D;51177;45.018;38.982;2022-11-24T12:55:49;17.91;51.69
64743;HTU21D;51177;45.018;38.982;2022-11-24T13:01:02;17.88;52.12
64743;HTU21D;51177;45.018;38.982;2022-11-24T13:03:35;17.96;52.04
64743;HTU21D;51177;45.018;38.982;2022-11-24T13:08:31;17.90;51.72
64743;HTU21D;51177;45.018;38.982;2022-11-24T13:11:33;17.84;52.08
64743;HTU21D;51177;45.018;38.982;2022-11-24T13:13:57;17.83;52.21
64743;HTU21D;51177;45.018;38.982;2022-11-24T13:16:24;17.90;52.05
64743;HTU21D;51177;45.018;38.982;2022-11-24T13:18:52;17.97;52.05
64743;HTU21D;51177;45.018;38.982;2022-11-24T13:24:04;17.90;52.30
64743;HTU21D;51177;45.018;38.982;2022-11-24T13:26:42;17.88;52.38
64743;HTU21D;51177;45.018;38.982;2022-11-24T13:53:30;17.89;52.37
64743;HTU21D;51177;45.018;38.982;2022-11-24T14:03:32;18.08;51.88
64743;HTU21D;51177;45.018;38.982;2022-11-24T14:05:59;17.95;52.27
64743;HTU21D;51177;45.018;38.982;2022-11-24T14:08:29;17.89;52.38
64743;HTU21D;51177;45.018;38.982;2022-11-24T14:10:56;17.81;52.35
64743;HTU21D;51177;45.018;38.982;2022-11-24T14:18:26;17.75;52.31
64743;HTU21D;51177;45.018;38.982;2022-11-24T14:20:58;17.65;52.46
64743;HTU21D;51177;45.018;38.982;2022-11-24T14:23:24;17.59;52.75
64743;HTU21D;51177;45.018;38.982;2022-11-24T14:25:51;17.54;52.80
64743;HTU21D;51177;45.018;38.982;2022-11-24T14:31:22;17.31;53.14
64743;HTU21D;51177;45.018;38.982;2022-11-24T14:33:50;17.22;53.37
64743;HTU21D;51177;45.018;38.982;2022-11-24T14:36:31;17.16;53.30
64743;HTU21D;51177;45.018;38.982;2022-11-24T14:38:57;17.03;53.45
64743;HTU21D;51177;45.018;38.982;2022-11-24T14:41:26;16.95;53.39
64743;HTU21D;51177;45.018;38.982;2022-11-24T14:47:04;16.90;53.58
64743;HTU21D;51177;45.018;38.982;2022-11-24T14:49:31;16.92;53.39
64743;HTU21D;51177;45.018;38.982;2022-11-24T14:52:07;16.96;51.87
64743;HTU21D;51177;45.018;38.982;2022-11-24T14:54:36;16.94;53.04
64743;HTU21D;51177;45.018;38.982;2022-11-24T14:57:25;16.90;53.37
64743;HTU21D;51177;45.018;38.982;2022-11-24T15:02:41;17.00;53.08
64743;HTU21D;51177;45.018;38.982;2022-11-24T15:05:15;16.93;52.04
64743;HTU21D;51177;45.018;38.982;2022-11-24T15:07:45;16.86;52.98
64743;HTU21D;51177;45.018;38.982;2022-11-24T15:10:21;16.84;53.04
64743;HTU21D;51177;45.018;38.982;2022-11-24T15:12:53;16.98;52.78
64743;HTU21D;51177;45.018;38.982;2022-11-24T15:15:21;17.11;50.62
64743;HTU21D;51177;45.018;38.982;2022-11-24T15:20:53;17.06;51.39
64743;HTU21D;51177;45.018;38.982;2022-11-24T15:25:56;16.98;52.00
64743;HTU21D;51177;45.018;38.982;2022-11-24T15:28:25;17.00;52.26
64743;HTU21D;51177;45.018;38.982;2022-11-24T15:30:55;17.15;52.31
64743;HTU21D;51177;45.018;38.982;2022-11-24T15:33:26;17.22;51.98
64743;HTU21D;51177;45.018;38.982;2022-11-24T15:35:52;17.35;51.59
64743;HTU21D;51177;45.018;38.982;2022-11-24T15:38:24;17.51;51.53
64743;HTU21D;51177;45.018;38.982;2022-11-24T15:40:57;17.64;51.45
64743;HTU21D;51177;45.018;38.982;2022-11-24T15:45:53;17.51;51.59
64743;HTU21D;51177;45.018;38.982;2022-11-24T15:48:20;17.38;51.85
64743;HTU21D;51177;45.018;38.982;2022-11-24T15:50:48;17.32;51.59
64743;HTU21D;51177;45.018;38.982;2022-11-24T15:53:27;17.38;51.70
64743;HTU21D;51177;45.018;38.982;2022-11-24T15:55:54;17.38;51.85
64743;HTU21D;51177;45.018;38.982;2022-11-24T15:58:21;17.50;51.66
64743;HTU21D;51177;45.018;38.982;2022-11-24T16:00:47;17.54;50.47
64743;HTU21D;51177;45.018;38.982;2022-11-24T16:03:17;17.54;50.83
64743;HTU21D;51177;45.018;38.982;2022-11-24T16:05:43;17.55;49.55
64743;HTU21D;51177;45.018;38.982;2022-11-24T16:08:13;17.46;51.08
64743;HTU21D;51177;45.018;38.982;2022-11-24T16:10:41;17.41;51.23
64743;HTU21D;51177;45.018;38.982;2022-11-24T16:13:13;17.35;50.21
64743;HTU21D;51177;45.018;38.982;2022-11-24T16:15:45;17.37;51.02
64743;HTU21D;51177;45.018;38.982;2022-11-24T16:18:13;17.30;50.85
64743;HTU21D;51177;45.018;38.982;2022-11-24T16:20:40;17.30;50.93
64743;HTU21D;51177;45.018;38.982;2022-11-24T16:23:07;17.25;50.99
64743;HTU21D;51177;45.018;38.982;2022-11-24T16:25:36;17.38;50.56
64743;HTU21D;51177;45.018;38.982;2022-11-24T16:28:02;17.38;50.88
64743;HTU21D;51177;45.018;38.982;2022-11-24T16:30:28;17.34;50.54
64743;HTU21D;51177;45.018;38.982;2022-11-24T16:32:54;17.30;50.98
64743;HTU21D;51177;45.018;38.982;2022-11-24T16:35:20;17.22;51.17
64743;HTU21D;51177;45.018;38.982;2022-11-24T16:37:49;17.15;50.91
64743;HTU21D;51177;45.018;38.982;2022-11-24T16:40:18;17.07;51.08
64743;HTU21D;51177;45.018;38.982;2022-11-24T16:43:12;17.01;51.29
64743;HTU21D;51177;45.018;38.982;2022-11-24T16:45:40;16.94;51.28
64743;HTU21D;51177;45.018;38.982;2022-11-24T16:48:09;16.85;51.23
64743;HTU21D;51177;45.018;38.982;2022-11-24T16:50:36;16.75;51.59
64743;HTU21D;51177;45.018;38.982;2022-11-24T16:53:04;16.74;51.72
64743;HTU21D;51177;45.018;38.982;2022-11-24T16:55:30;16.78;51.59
64743;HTU21D;51177;45.018;38.982;2022-11-24T16:57:58;16.74;51.22
64743;HTU21D;51177;45.018;38.982;2022-11-24T17:00:36;16.63;50.98
64743;HTU21D;51177;45.018;38.982;2022-11-24T17:03:09;16.65;50.98
64743;HTU21D;51177;45.018;38.982;2022-11-24T17:05:38;16.60;50.95
64743;HTU21D;51177;45.018;38.982;2022-11-24T17:08:04;16.52;50.98
64743;HTU21D;51177;45.018;38.982;2022-11-24T17:10:30;16.49;51.21
64743;HTU21D;51177;45.018;38.982;2022-11-24T17:12:57;16.46;51.45
64743;HTU21D;51177;45.018;38.982;2022-11-24T17:15:23;16.37;49.57
64743;HTU21D;51177;45.018;38.982;2022-11-24T17:17:52;16.40;51.38
64743;HTU21D;51177;45.018;38.982;2022-11-24T17:20:33;16.48;51.34
64743;HTU21D;51177;45.018;38.982;2022-11-24T17:23:00;16.52;50.54
64743;HTU21D;51177;45.018;38.982;2022-11-24T17:25:27;16.66;51.17
64743;HTU21D;51177;45.018;38.982;2022-11-24T17:27:59;16.92;50.33
64743;HTU21D;51177;45.018;38.982;2022-11-24T17:30:24;16.92;50.63
64743;HTU21D;51177;45.018;38.982;2022-11-24T17:32:51;16.77;50.66
64743;HTU21D;51177;45.018;38.982;2022-11-24T17:35:16;16.56;50.62
64743;HTU21D;51177;45.018;38.982;2022-11-24T17:37:42;16.36;51.10
64743;HTU21D;51177;45.018;38.982;2022-11-24T17:40:14;16.31;50.47
64743;HTU21D;51177;45.018;38.982;2022-11-24T17:42:44;16.21;49.92
64743;HTU21D;51177;45.018;38.982;2022-11-24T17:45:10;16.24;50.60
64743;HTU21D;51177;45.018;38.982;2022-11-24T17:47:36;16.19;50.97
64743;HTU21D;51177;45.018;38.982;2022-11-24T17:50:02;16.13;50.99
64743;HTU21D;51177;45.018;38.982;2022-11-24T17:52:28;16.07;50.90